createdAt,value
2022-10-19T00:07:12.361Z,98453.34
2022-10-19T00:17:13.833Z,98455.09
2022-10-19T00:27:15.269Z,98460.56
2022-10-19T00:37:16.732Z,98476.81
2022-10-19T00:47:23.356Z,98475.88
2022-10-19T00:57:28.545Z,98490.19
2022-10-19T01:07:30.741Z,98477.56
2022-10-19T01:17:48.981Z,98468.13
2022-10-19T01:27:59.773Z,98469.56
2022-10-19T01:38:14.361Z,98457.50
2022-10-19T01:48:21.049Z,98456.66
2022-10-19T01:58:27.974Z,98446.72
2022-10-19T02:08:35.001Z,98445.97
2022-10-19T02:18:46.264Z,98433.31
2022-10-19T02:28:48.641Z,98422.97
2022-10-19T02:38:50.166Z,98412.03
2022-10-19T02:48:52.045Z,98416.88
2022-10-19T02:58:53.880Z,98408.81
2022-10-19T03:08:58.489Z,98412.16
2022-10-19T03:18:59.966Z,98399.03
2022-10-19T03:29:01.823Z,98396.47
2022-10-19T03:39:11.518Z,98394.59
2022-10-19T03:49:13.088Z,98398.03
2022-10-19T03:59:15.821Z,98412.16
2022-10-19T04:09:19.509Z,98401.03
2022-10-19T04:19:20.990Z,98403.44
2022-10-19T04:29:26.485Z,98404.44
2022-10-19T04:39:31.146Z,98411.63
2022-10-19T04:49:32.566Z,98409.72
2022-10-19T04:59:34.057Z,98408.16
2022-10-19T05:09:35.617Z,98412.13
2022-10-19T05:19:37.074Z,98416.13
2022-10-19T05:29:38.498Z,98423.13
2022-10-19T05:39:40.073Z,98411.41
2022-10-19T05:49:41.531Z,98410.88
2022-10-19T05:59:42.970Z,98410.59
2022-10-19T06:09:45.685Z,98409.00
2022-10-19T06:19:47.137Z,98413.78
2022-10-19T06:29:48.789Z,98419.66
2022-10-19T06:39:50.333Z,98422.31
2022-10-19T06:49:51.780Z,98425.50
2022-10-19T06:59:53.791Z,98417.53
2022-10-19T07:09:55.302Z,98430.53
2022-10-19T07:19:57.029Z,98437.41
2022-10-19T07:29:58.466Z,98433.78
2022-10-19T07:40:00.201Z,98429.50
2022-10-19T07:50:01.643Z,98431.88
2022-10-19T08:00:04.123Z,98423.13
2022-10-19T08:10:13.661Z,98424.06
2022-10-19T08:20:16.057Z,98410.81
2022-10-19T08:30:17.766Z,98415.88
2022-10-19T08:40:24.024Z,98403.16
2022-10-19T08:50:34.221Z,98395.28
2022-10-19T09:10:44.123Z,98392.47
2022-10-19T09:20:49.178Z,98380.97
2022-10-19T09:30:53.186Z,98383.44
2022-10-19T09:40:58.206Z,98387.53
2022-10-19T09:51:03.333Z,98397.81
2022-10-19T10:01:04.933Z,98391.91
2022-10-19T10:11:09.035Z,98394.56
2022-10-19T10:21:25.298Z,98376.09
2022-10-19T10:31:29.772Z,98361.66
2022-10-19T10:41:38.477Z,98356.84
2022-10-19T10:51:53.161Z,98352.22
2022-10-19T11:02:14.378Z,98320.16
2022-10-19T11:12:20.022Z,98337.41
2022-10-19T11:22:43.377Z,98333.38
2022-10-19T11:33:22.219Z,98327.66
2022-10-19T11:43:32.058Z,98319.59
2022-10-19T11:53:50.523Z,98300.97
2022-10-19T12:04:01.839Z,98284.47
2022-10-19T12:14:09.484Z,98275.13
2022-10-19T12:24:22.658Z,98266.38
2022-10-19T12:34:48.205Z,98256.22
2022-10-19T12:45:11.960Z,98240.81
2022-10-19T12:55:16.355Z,98225.94
2022-10-19T13:05:23.383Z,98211.31
2022-10-19T13:15:34.057Z,98212.22
2022-10-19T13:25:36.937Z,98201.41
2022-10-19T13:35:38.945Z,98217.69
2022-10-19T13:45:42.614Z,98203.22
2022-10-19T13:55:55.588Z,98201.22
2022-10-19T14:06:07.862Z,98199.41
2022-10-19T14:16:22.532Z,98194.44
2022-10-19T14:26:27.925Z,98183.28
2022-10-19T14:36:39.518Z,98186.19
2022-10-19T14:46:40.958Z,98171.19
2022-10-19T14:56:55.518Z,98169.78
2022-10-19T15:06:58.983Z,98161.03
2022-10-19T15:17:02.843Z,98149.56
2022-10-19T15:27:22.435Z,98159.88
2022-10-19T15:37:24.650Z,98140.88
2022-10-19T15:47:26.887Z,98142.19
2022-10-19T15:57:40.199Z,98146.38
2022-10-19T16:07:42.018Z,98138.53
2022-10-19T16:17:47.165Z,98142.63
2022-10-19T16:27:48.692Z,98151.91
2022-10-19T16:37:50.114Z,98159.78
2022-10-19T16:47:52.858Z,98155.66
2022-10-19T16:57:54.297Z,98176.22
2022-10-19T17:07:55.984Z,98169.88
2022-10-19T17:17:58.002Z,98156.59
2022-10-19T17:27:59.453Z,98154.00
2022-10-19T17:38:00.882Z,98156.66
2022-10-19T17:48:02.309Z,98140.13
2022-10-19T17:58:05.325Z,98145.88
2022-10-19T18:08:06.845Z,98154.09
2022-10-19T18:18:08.290Z,98153.56
2022-10-19T18:28:09.837Z,98154.06
2022-10-19T18:38:11.297Z,98159.09
2022-10-19T18:48:12.712Z,98137.59
2022-10-19T18:58:14.173Z,98144.19
2022-10-19T19:08:15.828Z,98135.91
2022-10-19T19:28:19.655Z,98135.59
2022-10-19T19:38:21.157Z,98130.66
2022-10-19T19:48:22.791Z,98139.41
2022-10-19T19:58:24.281Z,98133.22
2022-10-19T20:08:26.467Z,98123.00
2022-10-19T20:18:29.579Z,98133.47
2022-10-19T20:28:34.087Z,98125.91
2022-10-19T20:38:37.182Z,98132.59
2022-10-19T20:48:39.700Z,98126.97
2022-10-19T20:58:43.362Z,98118.00
2022-10-19T21:08:46.239Z,98113.06
2022-10-19T21:18:49.314Z,98120.03
2022-10-19T21:28:53.191Z,98118.44
2022-10-19T21:38:54.676Z,98112.53
2022-10-19T21:48:56.392Z,98101.81
2022-10-19T21:58:57.952Z,98097.84
2022-10-19T22:08:59.916Z,98101.94
2022-10-19T22:19:01.420Z,98089.63
2022-10-19T22:29:04.773Z,98082.84
2022-10-19T22:39:07.051Z,98063.19
2022-10-19T22:59:15.489Z,98061.41
2022-10-19T23:09:16.896Z,98060.22
2022-10-19T23:19:18.468Z,98058.72
2022-10-19T23:29:20.033Z,98064.53
2022-10-19T23:39:21.465Z,98057.41
2022-10-19T23:49:22.890Z,98047.50
2022-10-19T23:59:24.333Z,98044.78
